sensor_id;sensor_type;location;lat;lon;timestamp;pressure;altitude;pressure_sealevel;temperature;humidity
32298;BME280;18782;48.984;8.548;2023-01-30T00:00:55;100778.22;;;-0.19;83.76
32298;BME280;18782;48.984;8.548;2023-01-30T00:03:24;100772.13;;;-0.11;83.86
32298;BME280;18782;48.984;8.548;2023-01-30T00:05:52;100772.47;;;-0.07;83.12
32298;BME280;18782;48.984;8.548;2023-01-30T00:08:20;100767.81;;;-0.12;83.73
32298;BME280;18782;48.984;8.548;2023-01-30T00:10:47;100754.69;;;-0.18;83.90
32298;BME280;18782;48.984;8.548;2023-01-30T00:13:16;100752.41;;;-0.15;84.04
32298;BME280;18782;48.984;8.548;2023-01-30T00:15:45;100743.03;;;-0.16;83.91
32298;BME280;18782;48.984;8.548;2023-01-30T00:18:13;100748.63;;;-0.20;84.72
32298;BME280;18782;48.984;8.548;2023-01-30T00:20:41;100751.91;;;-0.21;84.50
32298;BME280;18782;48.984;8.548;2023-01-30T00:23:09;100751.91;;;-0.21;84.45
32298;BME280;18782;48.984;8.548;2023-01-30T00:25:36;100755.69;;;-0.27;85.16
32298;BME280;18782;48.984;8.548;2023-01-30T00:28:04;100760.53;;;-0.30;84.67
32298;BME280;18782;48.984;8.548;2023-01-30T00:30:32;100773.97;;;-0.31;84.98
32298;BME280;18782;48.984;8.548;2023-01-30T00:33:01;100795.69;;;-0.22;85.57
32298;BME280;18782;48.984;8.548;2023-01-30T00:35:28;100800.50;;;-0.25;85.40
32298;BME280;18782;48.984;8.548;2023-01-30T00:37:57;100814.41;;;-0.20;84.85
32298;BME280;18782;48.984;8.548;2023-01-30T00:40:26;100814.16;;;-0.23;84.88
32298;BME280;18782;48.984;8.548;2023-01-30T00:42:55;100825.28;;;-0.21;85.40
32298;BME280;18782;48.984;8.548;2023-01-30T00:45:43;100839.94;;;-0.17;85.61
32298;BME280;18782;48.984;8.548;2023-01-30T00:48:30;100834.41;;;-0.23;85.77
32298;BME280;18782;48.984;8.548;2023-01-30T00:50:58;100833.13;;;-0.18;85.49
32298;BME280;18782;48.984;8.548;2023-01-30T00:53:26;100826.31;;;-0.19;85.84
32298;BME280;18782;48.984;8.548;2023-01-30T00:55:54;100825.03;;;-0.14;84.79
32298;BME280;18782;48.984;8.548;2023-01-30T00:58:23;100822.75;;;-0.21;85.60
32298;BME280;18782;48.984;8.548;2023-01-30T01:00:51;100814.41;;;-0.20;85.35
32298;BME280;18782;48.984;8.548;2023-01-30T01:03:18;100831.38;;;-0.19;86.00
32298;BME280;18782;48.984;8.548;2023-01-30T01:05:48;100831.97;;;-0.22;85.39
32298;BME280;18782;48.984;8.548;2023-01-30T01:08:15;100830.34;;;-0.32;85.54
32298;BME280;18782;48.984;8.548;2023-01-30T01:10:43;100842.97;;;-0.21;86.27
32298;BME280;18782;48.984;8.548;2023-01-30T01:13:10;100835.53;;;-0.20;85.75
32298;BME280;18782;48.984;8.548;2023-01-30T01:15:38;100841.09;;;-0.24;86.27
32298;BME280;18782;48.984;8.548;2023-01-30T01:18:06;100841.22;;;-0.22;86.02
32298;BME280;18782;48.984;8.548;2023-01-30T01:20:34;100851.84;;;-0.16;86.22
32298;BME280;18782;48.984;8.548;2023-01-30T01:23:03;100849.69;;;-0.22;85.33
32298;BME280;18782;48.984;8.548;2023-01-30T01:25:30;100850.34;;;-0.24;85.43
32298;BME280;18782;48.984;8.548;2023-01-30T01:30:31;100837.59;;;-0.36;85.71
32298;BME280;18782;48.984;8.548;2023-01-30T01:32:59;100835.41;;;-0.32;85.73
32298;BME280;18782;48.984;8.548;2023-01-30T01:35:27;100828.34;;;-0.36;86.01
32298;BME280;18782;48.984;8.548;2023-01-30T01:37:54;100821.50;;;-0.37;86.14
32298;BME280;18782;48.984;8.548;2023-01-30T01:40:24;100819.25;;;-0.44;85.97
32298;BME280;18782;48.984;8.548;2023-01-30T01:43:14;100828.84;;;-0.40;86.47
32298;BME280;18782;48.984;8.548;2023-01-30T01:45:46;100812.41;;;-0.45;86.76
32298;BME280;18782;48.984;8.548;2023-01-30T01:48:19;100785.59;;;-0.43;85.84
32298;BME280;18782;48.984;8.548;2023-01-30T01:50:52;100791.91;;;-0.48;85.41
32298;BME280;18782;48.984;8.548;2023-01-30T01:53:25;100782.06;;;-0.45;85.70
32298;BME280;18782;48.984;8.548;2023-01-30T01:55:57;100773.72;;;-0.44;85.68
32298;BME280;18782;48.984;8.548;2023-01-30T01:58:28;100768.03;;;-0.41;85.44
32298;BME280;18782;48.984;8.548;2023-01-30T02:00:58;100768.44;;;-0.47;86.28
32298;BME280;18782;48.984;8.548;2023-01-30T02:03:29;100766.63;;;-0.48;86.44
32298;BME280;18782;48.984;8.548;2023-01-30T02:06:00;100763.59;;;-0.44;85.92
32298;BME280;18782;48.984;8.548;2023-01-30T02:08:32;100762.22;;;-0.50;85.78
32298;BME280;18782;48.984;8.548;2023-01-30T02:11:06;100762.22;;;-0.50;86.96
32298;BME280;18782;48.984;8.548;2023-01-30T02:13:36;100749.94;;;-0.46;86.24
32298;BME280;18782;48.984;8.548;2023-01-30T02:16:06;100724.66;;;-0.46;86.19
32298;BME280;18782;48.984;8.548;2023-01-30T02:18:36;100720.47;;;-0.35;86.36
32298;BME280;18782;48.984;8.548;2023-01-30T02:24:18;100722.81;;;-0.27;85.65
32298;BME280;18782;48.984;8.548;2023-01-30T02:27:05;100713.25;;;-0.31;85.14
32298;BME280;18782;48.984;8.548;2023-01-30T02:29:58;100721.31;;;-0.24;85.55
32298;BME280;18782;48.984;8.548;2023-01-30T02:32:39;100721.53;;;-0.21;84.61
32298;BME280;18782;48.984;8.548;2023-01-30T02:35:17;100711.28;;;-0.13;84.48
32298;BME280;18782;48.984;8.548;2023-01-30T02:38:03;100702.50;;;-0.06;83.79
32298;BME280;18782;48.984;8.548;2023-01-30T02:40:40;100685.81;;;-0.04;83.69
32298;BME280;18782;48.984;8.548;2023-01-30T02:47:41;100635.19;;;-0.04;83.20
32298;BME280;18782;48.984;8.548;2023-01-30T02:50:15;100619.25;;;-0.03;82.57
32298;BME280;18782;48.984;8.548;2023-01-30T02:52:46;100599.75;;;-0.04;82.87
32298;BME280;18782;48.984;8.548;2023-01-30T02:55:19;100597.34;;;-0.03;82.63
32298;BME280;18782;48.984;8.548;2023-01-30T02:57:48;100594.69;;;-0.04;82.75
32298;BME280;18782;48.984;8.548;2023-01-30T03:00:19;100607.28;;;0.06;80.92
32298;BME280;18782;48.984;8.548;2023-01-30T03:03:06;100608.19;;;0.07;80.60
32298;BME280;18782;48.984;8.548;2023-01-30T03:05:49;100588.13;;;0.10;80.72
32298;BME280;18782;48.984;8.548;2023-01-30T03:08:24;100570.78;;;0.14;80.27
32298;BME280;18782;48.984;8.548;2023-01-30T03:10:59;100560.78;;;0.16;80.67
32298;BME280;18782;48.984;8.548;2023-01-30T03:13:35;100535.78;;;0.20;80.15
32298;BME280;18782;48.984;8.548;2023-01-30T03:16:10;100545.38;;;0.24;78.59
32298;BME280;18782;48.984;8.548;2023-01-30T03:18:41;100551.91;;;0.33;78.68
32298;BME280;18782;48.984;8.548;2023-01-30T03:21:09;100551.91;;;0.33;78.25
32298;BME280;18782;48.984;8.548;2023-01-30T03:23:37;100565.56;;;0.35;78.32
32298;BME280;18782;48.984;8.548;2023-01-30T03:26:10;100578.31;;;0.36;78.73
32298;BME280;18782;48.984;8.548;2023-01-30T03:28:40;100596.72;;;0.34;78.93
32298;BME280;18782;48.984;8.548;2023-01-30T03:31:08;100586.47;;;0.32;79.01
32298;BME280;18782;48.984;8.548;2023-01-30T03:33:36;100590.66;;;0.32;78.88
32298;BME280;18782;48.984;8.548;2023-01-30T03:36:07;100596.59;;;0.32;78.98
32298;BME280;18782;48.984;8.548;2023-01-30T03:38:35;100608.25;;;0.30;79.13
32298;BME280;18782;48.984;8.548;2023-01-30T03:41:04;100604.06;;;0.31;79.02
32298;BME280;18782;48.984;8.548;2023-01-30T03:43:32;100606.31;;;0.38;79.07
32298;BME280;18782;48.984;8.548;2023-01-30T03:46:02;100599.94;;;0.43;76.80
32298;BME280;18782;48.984;8.548;2023-01-30T03:48:30;100610.28;;;0.46;76.82
32298;BME280;18782;48.984;8.548;2023-01-30T03:50:58;100612.28;;;0.50;77.41
32298;BME280;18782;48.984;8.548;2023-01-30T03:53:26;100608.63;;;0.46;77.94
32298;BME280;18782;48.984;8.548;2023-01-30T03:55:54;100609.41;;;0.45;78.05
32298;BME280;18782;48.984;8.548;2023-01-30T03:58:29;100603.47;;;0.57;78.15
32298;BME280;18782;48.984;8.548;2023-01-30T04:00:59;100612.75;;;0.56;77.00
32298;BME280;18782;48.984;8.548;2023-01-30T04:03:27;100618.25;;;0.62;76.75
32298;BME280;18782;48.984;8.548;2023-01-30T04:05:57;100626.19;;;0.67;76.20
32298;BME280;18782;48.984;8.548;2023-01-30T04:08:26;100622.50;;;0.73;75.87
32298;BME280;18782;48.984;8.548;2023-01-30T04:10:54;100617.09;;;0.81;75.81
32298;BME280;18782;48.984;8.548;2023-01-30T04:13:22;100620.50;;;0.81;75.55
32298;BME280;18782;48.984;8.548;2023-01-30T04:15:50;100629.78;;;0.92;75.09
32298;BME280;18782;48.984;8.548;2023-01-30T04:18:24;100632.66;;;0.97;74.59
32298;BME280;18782;48.984;8.548;2023-01-30T04:20:58;100622.97;;;1.03;74.28
32298;BME280;18782;48.984;8.548;2023-01-30T04:23:35;100632.13;;;1.13;73.94
32298;BME280;18782;48.984;8.548;2023-01-30T04:26:03;100615.25;;;1.13;73.27
32298;BME280;18782;48.984;8.548;2023-01-30T04:28:35;100626.50;;;1.17;73.87
32298;BME280;18782;48.984;8.548;2023-01-30T04:31:03;100620.56;;;1.16;74.00
32298;BME280;18782;48.984;8.548;2023-01-30T04:34:03;100631.13;;;1.22;73.58
32298;BME280;18782;48.984;8.548;2023-01-30T04:36:31;100627.16;;;1.14;73.51
32298;BME280;18782;48.984;8.548;2023-01-30T04:39:00;100613.94;;;1.18;73.98
32298;BME280;18782;48.984;8.548;2023-01-30T04:41:29;100597.41;;;1.23;74.16
32298;BME280;18782;48.984;8.548;2023-01-30T04:43:59;100599.72;;;1.20;74.00
32298;BME280;18782;48.984;8.548;2023-01-30T04:46:41;100596.06;;;1.28;73.78
32298;BME280;18782;48.984;8.548;2023-01-30T04:49:12;100594.22;;;1.26;73.35
32298;BME280;18782;48.984;8.548;2023-01-30T04:51:43;100590.78;;;1.25;73.61
32298;BME280;18782;48.984;8.548;2023-01-30T04:54:12;100605.00;;;1.23;73.51
32298;BME280;18782;48.984;8.548;2023-01-30T04:56:40;100600.59;;;1.21;73.68
32298;BME280;18782;48.984;8.548;2023-01-30T04:59:08;100591.34;;;1.21;73.98
32298;BME280;18782;48.984;8.548;2023-01-30T05:01:40;100593.88;;;1.21;74.08
32298;BME280;18782;48.984;8.548;2023-01-30T05:04:08;100585.06;;;1.16;74.89
32298;BME280;18782;48.984;8.548;2023-01-30T05:06:36;100597.31;;;1.10;74.14
32298;BME280;18782;48.984;8.548;2023-01-30T05:09:04;100592.31;;;1.12;74.83
32298;BME280;18782;48.984;8.548;2023-01-30T05:11:34;100592.97;;;1.09;74.18
32298;BME280;18782;48.984;8.548;2023-01-30T05:14:01;100591.13;;;1.07;74.46
32298;BME280;18782;48.984;8.548;2023-01-30T05:16:29;100586.47;;;1.13;73.91
32298;BME280;18782;48.984;8.548;2023-01-30T05:18:57;100584.38;;;1.07;73.55
32298;BME280;18782;48.984;8.548;2023-01-30T05:21:26;100580.75;;;1.15;74.00
32298;BME280;18782;48.984;8.548;2023-01-30T05:23:54;100588.13;;;1.12;73.40
32298;BME280;18782;48.984;8.548;2023-01-30T05:26:23;100568.09;;;1.15;73.84
32298;BME280;18782;48.984;8.548;2023-01-30T05:28:53;100562.44;;;1.19;73.71
32298;BME280;18782;48.984;8.548;2023-01-30T05:31:21;100563.53;;;1.23;73.31
32298;BME280;18782;48.984;8.548;2023-01-30T05:33:49;100581.75;;;1.17;73.76
32298;BME280;18782;48.984;8.548;2023-01-30T05:36:19;100565.97;;;1.21;74.21
32298;BME280;18782;48.984;8.548;2023-01-30T05:38:47;100568.06;;;1.27;74.31
32298;BME280;18782;48.984;8.548;2023-01-30T05:41:16;100561.88;;;1.23;73.79
32298;BME280;18782;48.984;8.548;2023-01-30T05:43:48;100552.59;;;1.36;74.30
32298;BME280;18782;48.984;8.548;2023-01-30T05:46:17;100555.91;;;1.35;73.68
32298;BME280;18782;48.984;8.548;2023-01-30T05:48:45;100544.00;;;1.34;73.84
32298;BME280;18782;48.984;8.548;2023-01-30T05:51:15;100535.44;;;1.32;74.55
32298;BME280;18782;48.984;8.548;2023-01-30T05:53:42;100557.13;;;1.40;74.07
32298;BME280;18782;48.984;8.548;2023-01-30T05:56:10;100546.41;;;1.44;74.53
32298;BME280;18782;48.984;8.548;2023-01-30T05:58:38;100559.09;;;1.44;74.83
32298;BME280;18782;48.984;8.548;2023-01-30T06:01:07;100550.63;;;1.43;74.84
32298;BME280;18782;48.984;8.548;2023-01-30T06:03:37;100543.09;;;1.45;74.91
32298;BME280;18782;48.984;8.548;2023-01-30T06:06:07;100546.06;;;1.51;74.19
32298;BME280;18782;48.984;8.548;2023-01-30T06:08:35;100551.72;;;1.47;74.26
32298;BME280;18782;48.984;8.548;2023-01-30T06:11:04;100557.69;;;1.47;74.27
32298;BME280;18782;48.984;8.548;2023-01-30T06:13:32;100531.44;;;1.47;73.72
32298;BME280;18782;48.984;8.548;2023-01-30T06:16:00;100533.50;;;1.52;75.37
32298;BME280;18782;48.984;8.548;2023-01-30T06:18:28;100535.59;;;1.58;74.56
32298;BME280;18782;48.984;8.548;2023-01-30T06:20:57;100520.63;;;1.74;76.08
32298;BME280;18782;48.984;8.548;2023-01-30T06:23:25;100530.38;;;1.68;73.87
32298;BME280;18782;48.984;8.548;2023-01-30T06:25:53;100513.31;;;1.54;74.45
32298;BME280;18782;48.984;8.548;2023-01-30T06:28:22;100517.97;;;1.48;74.40
32298;BME280;18782;48.984;8.548;2023-01-30T06:30:51;100516.75;;;1.43;74.63
32298;BME280;18782;48.984;8.548;2023-01-30T06:33:19;100531.66;;;1.38;74.86
32298;BME280;18782;48.984;8.548;2023-01-30T06:35:48;100527.72;;;1.18;76.01
32298;BME280;18782;48.984;8.548;2023-01-30T06:38:18;100513.38;;;1.30;75.87
32298;BME280;18782;48.984;8.548;2023-01-30T06:40:47;100526.06;;;1.30;75.92
32298;BME280;18782;48.984;8.548;2023-01-30T06:43:16;100523.28;;;1.27;76.07
32298;BME280;18782;48.984;8.548;2023-01-30T06:45:44;100525.69;;;1.38;75.76
32298;BME280;18782;48.984;8.548;2023-01-30T06:48:12;100545.34;;;1.28;76.22
32298;BME280;18782;48.984;8.548;2023-01-30T06:50:40;100530.56;;;1.35;75.73
32298;BME280;18782;48.984;8.548;2023-01-30T06:53:07;100533.00;;;1.33;75.81
32298;BME280;18782;48.984;8.548;2023-01-30T06:55:37;100546.00;;;1.38;76.17
32298;BME280;18782;48.984;8.548;2023-01-30T06:58:06;100542.25;;;1.33;76.24
32298;BME280;18782;48.984;8.548;2023-01-30T07:00:35;100542.34;;;1.34;76.58
32298;BME280;18782;48.984;8.548;2023-01-30T07:03:09;100550.41;;;1.28;76.12
32298;BME280;18782;48.984;8.548;2023-01-30T07:05:37;100544.00;;;1.34;75.88
32298;BME280;18782;48.984;8.548;2023-01-30T07:08:05;100573.81;;;1.36;75.96
32298;BME280;18782;48.984;8.548;2023-01-30T07:10:33;100561.22;;;1.38;75.95
32298;BME280;18782;48.984;8.548;2023-01-30T07:13:03;100567.25;;;1.40;75.32
32298;BME280;18782;48.984;8.548;2023-01-30T07:15:32;100574.31;;;1.44;75.09
32298;BME280;18782;48.984;8.548;2023-01-30T07:17:59;100575.97;;;1.43;74.77
32298;BME280;18782;48.984;8.548;2023-01-30T07:20:27;100574.31;;;1.44;75.46
32298;BME280;18782;48.984;8.548;2023-01-30T07:22:56;100559.88;;;1.43;75.58
32298;BME280;18782;48.984;8.548;2023-01-30T07:25:25;100565.84;;;1.43;75.59
32298;BME280;18782;48.984;8.548;2023-01-30T07:27:54;100577.41;;;1.40;76.29
32298;BME280;18782;48.984;8.548;2023-01-30T07:30:24;100578.44;;;1.42;75.99
32298;BME280;18782;48.984;8.548;2023-01-30T07:32:53;100598.91;;;1.45;75.90
32298;BME280;18782;48.984;8.548;2023-01-30T07:35:22;100584.03;;;1.38;77.03
32298;BME280;18782;48.984;8.548;2023-01-30T07:37:50;100599.03;;;1.35;77.48
32298;BME280;18782;48.984;8.548;2023-01-30T07:40:19;100592.53;;;1.38;77.67
32298;BME280;18782;48.984;8.548;2023-01-30T07:42:56;100598.25;;;1.36;78.37
32298;BME280;18782;48.984;8.548;2023-01-30T07:45:27;100591.31;;;1.45;77.85
32298;BME280;18782;48.984;8.548;2023-01-30T07:47:56;100574.44;;;1.34;78.29
32298;BME280;18782;48.984;8.548;2023-01-30T07:50:23;100571.91;;;1.34;78.06
32298;BME280;18782;48.984;8.548;2023-01-30T07:52:51;100565.88;;;1.32;77.94
32298;BME280;18782;48.984;8.548;2023-01-30T07:55:19;100567.63;;;1.33;78.26
32298;BME280;18782;48.984;8.548;2023-01-30T07:57:46;100533.00;;;1.33;78.57
32298;BME280;18782;48.984;8.548;2023-01-30T08:00:15;100535.19;;;1.28;79.43
32298;BME280;18782;48.984;8.548;2023-01-30T08:02:45;100537.84;;;1.42;80.15
32298;BME280;18782;48.984;8.548;2023-01-30T08:05:13;100548.53;;;1.38;80.02
32298;BME280;18782;48.984;8.548;2023-01-30T08:07:40;100546.19;;;1.52;85.89
32298;BME280;18782;48.984;8.548;2023-01-30T08:10:09;100556.34;;;1.52;79.15
32298;BME280;18782;48.984;8.548;2023-01-30T08:12:38;100521.47;;;1.50;78.92
32298;BME280;18782;48.984;8.548;2023-01-30T08:15:06;100523.22;;;1.63;78.86
32298;BME280;18782;48.984;8.548;2023-01-30T08:17:34;100549.78;;;1.68;78.91
32298;BME280;18782;48.984;8.548;2023-01-30T08:20:04;100524.94;;;1.75;78.92
32298;BME280;18782;48.984;8.548;2023-01-30T08:22:32;100529.44;;;1.79;78.98
32298;BME280;18782;48.984;8.548;2023-01-30T08:25:00;100550.06;;;1.84;78.78
32298;BME280;18782;48.984;8.548;2023-01-30T08:27:27;100576.09;;;1.81;78.43
32298;BME280;18782;48.984;8.548;2023-01-30T08:29:55;100558.75;;;1.88;78.76
32298;BME280;18782;48.984;8.548;2023-01-30T08:32:22;100548.97;;;1.80;78.28
32298;BME280;18782;48.984;8.548;2023-01-30T08:34:50;100562.50;;;1.68;78.69
32298;BME280;18782;48.984;8.548;2023-01-30T08:37:19;100555.94;;;1.71;78.68
32298;BME280;18782;48.984;8.548;2023-01-30T08:39:47;100540.84;;;1.73;78.51
32298;BME280;18782;48.984;8.548;2023-01-30T08:42:14;100534.63;;;1.81;78.55
32298;BME280;18782;48.984;8.548;2023-01-30T08:44:42;100542.34;;;1.82;79.01
32298;BME280;18782;48.984;8.548;2023-01-30T08:47:09;100527.53;;;1.89;79.20
32298;BME280;18782;48.984;8.548;2023-01-30T08:49:37;100520.41;;;1.83;80.43
32298;BME280;18782;48.984;8.548;2023-01-30T08:52:05;100538.75;;;2.04;80.06
32298;BME280;18782;48.984;8.548;2023-01-30T08:54:34;100518.44;;;2.04;80.53
32298;BME280;18782;48.984;8.548;2023-01-30T08:57:01;100507.81;;;1.98;80.82
32298;BME280;18782;48.984;8.548;2023-01-30T08:59:29;100498.13;;;2.04;81.31
32298;BME280;18782;48.984;8.548;2023-01-30T09:01:57;100502.75;;;1.98;82.74
32298;BME280;18782;48.984;8.548;2023-01-30T09:04:24;100499.09;;;2.19;81.75
32298;BME280;18782;48.984;8.548;2023-01-30T09:06:52;100499.31;;;2.09;82.13
32298;BME280;18782;48.984;8.548;2023-01-30T09:09:19;100502.44;;;2.18;82.38
32298;BME280;18782;48.984;8.548;2023-01-30T09:11:48;100503.66;;;2.37;81.95
32298;BME280;18782;48.984;8.548;2023-01-30T09:14:16;100512.47;;;2.42;81.56
32298;BME280;18782;48.984;8.548;2023-01-30T09:16:45;100535.13;;;2.39;81.82
32298;BME280;18782;48.984;8.548;2023-01-30T09:19:13;100513.03;;;2.38;82.23
32298;BME280;18782;48.984;8.548;2023-01-30T09:21:41;100515.00;;;2.42;82.04
32298;BME280;18782;48.984;8.548;2023-01-30T09:24:08;100524.38;;;2.43;81.80
32298;BME280;18782;48.984;8.548;2023-01-30T09:26:36;100508.66;;;2.48;81.81
32298;BME280;18782;48.984;8.548;2023-01-30T09:29:07;100503.84;;;2.40;82.03
32298;BME280;18782;48.984;8.548;2023-01-30T09:31:34;100524.00;;;2.50;82.03
32298;BME280;18782;48.984;8.548;2023-01-30T09:34:02;100510.31;;;2.48;82.09
32298;BME280;18782;48.984;8.548;2023-01-30T09:36:30;100516.59;;;2.53;81.98
32298;BME280;18782;48.984;8.548;2023-01-30T09:38:58;100529.38;;;2.54;82.48
32298;BME280;18782;48.984;8.548;2023-01-30T09:41:38;100510.72;;;2.54;82.40
32298;BME280;18782;48.984;8.548;2023-01-30T09:44:25;100501.34;;;2.53;82.96
32298;BME280;18782;48.984;8.548;2023-01-30T09:47:01;100500.47;;;2.52;82.93
32298;BME280;18782;48.984;8.548;2023-01-30T09:49:38;100485.13;;;2.64;82.91
32298;BME280;18782;48.984;8.548;2023-01-30T09:52:19;100484.63;;;2.70;82.70
32298;BME280;18782;48.984;8.548;2023-01-30T09:54:50;100482.16;;;2.71;82.02
32298;BME280;18782;48.984;8.548;2023-01-30T09:57:22;100487.06;;;2.68;82.14
32298;BME280;18782;48.984;8.548;2023-01-30T09:59:56;100470.06;;;2.67;82.32
32298;BME280;18782;48.984;8.548;2023-01-30T10:02:43;100485.31;;;2.67;82.49
32298;BME280;18782;48.984;8.548;2023-01-30T10:05:15;100489.91;;;2.59;83.51
32298;BME280;18782;48.984;8.548;2023-01-30T10:07:53;100494.19;;;2.60;84.16
32298;BME280;18782;48.984;8.548;2023-01-30T10:10:36;100489.41;;;2.65;83.40
32298;BME280;18782;48.984;8.548;2023-01-30T10:13:18;100472.63;;;2.67;84.51
32298;BME280;18782;48.984;8.548;2023-01-30T10:15:58;100484.13;;;2.75;83.81
32298;BME280;18782;48.984;8.548;2023-01-30T10:18:48;100474.94;;;2.64;84.92
32298;BME280;18782;48.984;8.548;2023-01-30T10:21:26;100472.81;;;2.83;83.98
32298;BME280;18782;48.984;8.548;2023-01-30T10:24:11;100468.88;;;2.75;84.28
32298;BME280;18782;48.984;8.548;2023-01-30T10:26:43;100484.53;;;2.81;84.65
32298;BME280;18782;48.984;8.548;2023-01-30T10:29:16;100490.03;;;2.61;85.50
32298;BME280;18782;48.984;8.548;2023-01-30T10:31:51;100458.72;;;2.75;85.64
32298;BME280;18782;48.984;8.548;2023-01-30T10:34:23;100470.47;;;2.73;85.23
32298;BME280;18782;48.984;8.548;2023-01-30T10:36:57;100452.38;;;2.69;85.98
32298;BME280;18782;48.984;8.548;2023-01-30T10:39:33;100444.63;;;2.80;86.51
32298;BME280;18782;48.984;8.548;2023-01-30T10:42:13;100455.69;;;2.81;86.20
32298;BME280;18782;48.984;8.548;2023-01-30T10:44:43;100482.56;;;2.64;87.25
32298;BME280;18782;48.984;8.548;2023-01-30T10:47:32;100461.75;;;2.70;88.25
32298;BME280;18782;48.984;8.548;2023-01-30T10:50:15;100442.97;;;2.81;88.53
32298;BME280;18782;48.984;8.548;2023-01-30T10:52:50;100461.94;;;2.86;87.80
32298;BME280;18782;48.984;8.548;2023-01-30T10:55:27;100446.00;;;2.88;88.66
32298;BME280;18782;48.984;8.548;2023-01-30T10:58:07;100442.69;;;2.90;89.25
32298;BME280;18782;48.984;8.548;2023-01-30T11:00:42;100452.84;;;3.03;88.87
32298;BME280;18782;48.984;8.548;2023-01-30T11:03:20;100455.38;;;3.03;88.20
32298;BME280;18782;48.984;8.548;2023-01-30T11:05:50;100463.59;;;2.85;89.56
32298;BME280;18782;48.984;8.548;2023-01-30T11:08:21;100472.69;;;2.95;88.49
32298;BME280;18782;48.984;8.548;2023-01-30T11:10:50;100463.81;;;2.88;89.56
32298;BME280;18782;48.984;8.548;2023-01-30T11:13:19;100457.94;;;2.90;89.84
32298;BME280;18782;48.984;8.548;2023-01-30T11:15:50;100460.69;;;2.93;89.27
32298;BME280;18782;48.984;8.548;2023-01-30T11:18:21;100455.59;;;2.93;89.33
32298;BME280;18782;48.984;8.548;2023-01-30T11:21:13;100447.25;;;2.95;90.70
32298;BME280;18782;48.984;8.548;2023-01-30T11:23:47;100452.63;;;2.86;91.10
32298;BME280;18782;48.984;8.548;2023-01-30T11:26:20;100448.34;;;2.85;91.74
32298;BME280;18782;48.984;8.548;2023-01-30T11:28:54;100448.94;;;2.81;92.69
32298;BME280;18782;48.984;8.548;2023-01-30T11:31:24;100462.06;;;2.87;93.53
32298;BME280;18782;48.984;8.548;2023-01-30T11:34:12;100441.13;;;2.78;93.20
32298;BME280;18782;48.984;8.548;2023-01-30T11:36:41;100428.00;;;2.85;93.94
32298;BME280;18782;48.984;8.548;2023-01-30T11:39:19;100429.53;;;2.97;93.76
32298;BME280;18782;48.984;8.548;2023-01-30T11:42:00;100451.25;;;2.92;94.21
32298;BME280;18782;48.984;8.548;2023-01-30T11:44:31;100472.31;;;2.89;93.69
32298;BME280;18782;48.984;8.548;2023-01-30T11:47:02;100450.38;;;2.91;95.30
32298;BME280;18782;48.984;8.548;2023-01-30T11:49:35;100450.88;;;2.85;94.71
32298;BME280;18782;48.984;8.548;2023-01-30T11:52:26;100449.88;;;2.97;95.36
32298;BME280;18782;48.984;8.548;2023-01-30T11:54:57;100442.69;;;2.90;96.97
32298;BME280;18782;48.984;8.548;2023-01-30T11:57:28;100437.38;;;2.86;96.12
32298;BME280;18782;48.984;8.548;2023-01-30T11:59:58;100441.50;;;2.98;96.57
32298;BME280;18782;48.984;8.548;2023-01-30T12:02:36;100446.75;;;3.01;95.96
32298;BME280;18782;48.984;8.548;2023-01-30T12:05:20;100452.25;;;2.80;96.22
32298;BME280;18782;48.984;8.548;2023-01-30T12:07:49;100440.34;;;2.79;96.38
32298;BME280;18782;48.984;8.548;2023-01-30T12:10:25;100465.94;;;2.69;96.84
32298;BME280;18782;48.984;8.548;2023-01-30T12:12:57;100437.19;;;2.70;97.34
32298;BME280;18782;48.984;8.548;2023-01-30T12:15:28;100449.72;;;2.80;98.03
32298;BME280;18782;48.984;8.548;2023-01-30T12:18:02;100442.69;;;2.63;97.70
32298;BME280;18782;48.984;8.548;2023-01-30T12:20:42;100436.41;;;2.71;98.07
32298;BME280;18782;48.984;8.548;2023-01-30T12:23:16;100435.66;;;2.59;97.43
32298;BME280;18782;48.984;8.548;2023-01-30T12:25:51;100442.88;;;2.79;100.00
32298;BME280;18782;48.984;8.548;2023-01-30T12:28:30;100436.63;;;2.74;98.18
32298;BME280;18782;48.984;8.548;2023-01-30T12:31:06;100446.31;;;2.67;97.31
32298;BME280;18782;48.984;8.548;2023-01-30T12:33:34;100454.44;;;2.61;97.13
32298;BME280;18782;48.984;8.548;2023-01-30T12:36:10;100439.56;;;2.54;96.85
32298;BME280;18782;48.984;8.548;2023-01-30T12:38:54;100445.22;;;2.50;96.97
32298;BME280;18782;48.984;8.548;2023-01-30T12:41:33;100430.97;;;2.52;97.16
32298;BME280;18782;48.984;8.548;2023-01-30T12:44:25;100435.94;;;2.50;96.80
32298;BME280;18782;48.984;8.548;2023-01-30T12:47:11;100439.34;;;2.38;97.16
32298;BME280;18782;48.984;8.548;2023-01-30T12:50:03;100452.84;;;2.37;97.59
32298;BME280;18782;48.984;8.548;2023-01-30T12:52:47;100475.63;;;2.35;97.33
32298;BME280;18782;48.984;8.548;2023-01-30T12:55:28;100478.25;;;2.37;97.54
32298;BME280;18782;48.984;8.548;2023-01-30T12:57:58;100463.66;;;2.34;97.50
32298;BME280;18782;48.984;8.548;2023-01-30T13:00:35;100463.41;;;2.43;96.71
32298;BME280;18782;48.984;8.548;2023-01-30T13:03:18;100488.03;;;2.30;95.87
32298;BME280;18782;48.984;8.548;2023-01-30T13:05:51;100472.47;;;2.39;96.01
32298;BME280;18782;48.984;8.548;2023-01-30T13:08:31;100475.88;;;2.26;95.43
32298;BME280;18782;48.984;8.548;2023-01-30T13:11:14;100481.63;;;2.24;96.17
32298;BME280;18782;48.984;8.548;2023-01-30T13:13:51;100486.53;;;2.21;95.69
32298;BME280;18782;48.984;8.548;2023-01-30T13:16:26;100484.28;;;2.25;95.29
32298;BME280;18782;48.984;8.548;2023-01-30T13:19:03;100483.28;;;2.23;95.51
32298;BME280;18782;48.984;8.548;2023-01-30T13:21:36;100486.44;;;2.32;95.53
32298;BME280;18782;48.984;8.548;2023-01-30T13:24:18;100487.41;;;2.21;94.86
32298;BME280;18782;48.984;8.548;2023-01-30T13:26:50;100482.50;;;2.24;95.68
32298;BME280;18782;48.984;8.548;2023-01-30T13:29:23;100477.44;;;2.24;95.05
32298;BME280;18782;48.984;8.548;2023-01-30T13:31:56;100466.69;;;2.28;95.18